createdAt,value
2022-11-20T00:01:32.758Z,3.50
2022-11-20T00:04:00.595Z,3.42
2022-11-20T00:06:29.142Z,3.17
2022-11-20T00:09:00.375Z,3.00
2022-11-20T00:11:30.957Z,2.60
2022-11-20T00:14:01.405Z,2.27
2022-11-20T00:16:32.755Z,2.50
2022-11-20T00:19:00.742Z,2.05
2022-11-20T00:21:29.565Z,1.87
2022-11-20T00:23:58.451Z,1.98
2022-11-20T00:26:29.299Z,1.50
2022-11-20T00:29:00.101Z,1.52
2022-11-20T00:31:29.237Z,2.00
2022-11-20T00:33:57.455Z,2.65
2022-11-20T00:36:28.469Z,1.60
2022-11-20T00:38:58.593Z,1.37
2022-11-20T00:41:32.593Z,1.40
2022-11-20T00:44:05.443Z,1.10
2022-11-20T00:46:40.199Z,1.17
2022-11-20T00:49:16.468Z,1.20
2022-11-20T00:51:45.878Z,1.10
2022-11-20T00:54:17.272Z,1.30
2022-11-20T00:56:48.478Z,0.80
2022-11-20T00:59:16.810Z,0.80
2022-11-20T01:01:44.723Z,1.00
2022-11-20T01:04:12.760Z,1.67
2022-11-20T01:06:40.745Z,1.50
2022-11-20T01:09:13.306Z,3.02
2022-11-20T01:11:44.769Z,2.50
2022-11-20T01:14:19.715Z,1.72
2022-11-20T01:16:52.629Z,3.40
2022-11-20T01:19:24.779Z,2.42
2022-11-20T01:21:55.556Z,1.57
2022-11-20T01:24:23.853Z,1.95
2022-11-20T01:26:52.701Z,2.17
2022-11-20T01:29:26.820Z,1.70
2022-11-20T01:31:54.976Z,1.80
2022-11-20T01:34:23.939Z,1.42
2022-11-20T01:36:53.330Z,2.70
2022-11-20T01:39:27.562Z,1.50
2022-11-20T01:42:15.280Z,2.70
2022-11-20T01:44:59.391Z,1.50
2022-11-20T01:47:37.984Z,1.32
2022-11-20T01:50:19.931Z,1.40
2022-11-20T01:53:01.237Z,1.40
2022-11-20T01:55:34.100Z,1.75
2022-11-20T01:58:03.910Z,2.00
2022-11-20T02:00:32.182Z,2.27
2022-11-20T02:03:04.909Z,2.55
2022-11-20T02:06:08.762Z,3.00
2022-11-20T02:08:38.631Z,2.98
2022-11-20T02:11:06.660Z,2.95
2022-11-20T02:13:45.099Z,3.12
2022-11-20T02:16:29.925Z,3.17
2022-11-20T02:19:01.664Z,3.00
2022-11-20T02:21:37.778Z,2.58
2022-11-20T02:24:13.816Z,2.65
2022-11-20T02:27:04.549Z,2.33
2022-11-20T02:29:46.733Z,1.95
2022-11-20T02:32:27.378Z,2.42
2022-11-20T02:34:55.657Z,1.70
2022-11-20T02:37:24.113Z,1.67
2022-11-20T02:39:53.539Z,1.27
2022-11-20T02:42:21.226Z,1.20
2022-11-20T02:44:49.028Z,1.20
2022-11-20T02:47:17.776Z,1.00
2022-11-20T02:49:45.435Z,1.07
2022-11-20T02:52:13.443Z,1.25
2022-11-20T02:54:41.557Z,1.00
2022-11-20T02:57:09.304Z,1.22
2022-11-20T02:59:37.257Z,1.20
2022-11-20T03:02:05.573Z,1.05
2022-11-20T03:04:33.342Z,0.80
2022-11-20T03:07:01.255Z,0.98
2022-11-20T03:09:30.635Z,0.85
2022-11-20T03:11:58.622Z,0.85
2022-11-20T03:14:26.295Z,1.50
2022-11-20T03:16:54.110Z,0.90
2022-11-20T03:19:22.066Z,0.82
2022-11-20T03:21:50.232Z,0.93
2022-11-20T03:24:17.959Z,0.70
2022-11-20T03:26:45.837Z,0.85
2022-11-20T03:29:13.402Z,1.05
2022-11-20T03:31:42.328Z,1.47
2022-11-20T03:34:12.371Z,1.50
2022-11-20T03:36:43.050Z,1.67
2022-11-20T03:39:11.056Z,1.45
2022-11-20T03:41:41.773Z,1.70
2022-11-20T03:44:11.632Z,1.90
2022-11-20T03:46:39.680Z,1.82
2022-11-20T03:49:07.438Z,1.60
2022-11-20T03:51:36.943Z,1.57
2022-11-20T03:54:08.732Z,1.70
2022-11-20T03:56:40.083Z,1.20
2022-11-20T03:59:10.879Z,1.15
2022-11-20T04:01:38.831Z,0.70
2022-11-20T04:04:06.951Z,0.90
2022-11-20T04:06:38.009Z,1.00
2022-11-20T04:09:06.754Z,0.90
2022-11-20T04:11:38.262Z,0.60
2022-11-20T04:14:16.061Z,0.47
2022-11-20T04:16:46.414Z,0.60
2022-11-20T04:19:16.819Z,0.55
2022-11-20T04:21:45.817Z,0.80
2022-11-20T04:24:13.939Z,0.90
2022-11-20T04:26:42.509Z,0.93
2022-11-20T04:29:12.546Z,0.90
2022-11-20T04:31:42.281Z,1.10
2022-11-20T04:34:13.133Z,1.02
2022-11-20T04:36:40.845Z,0.85
2022-11-20T04:39:13.585Z,0.80
2022-11-20T04:41:41.777Z,0.88
2022-11-20T04:44:09.688Z,1.20
2022-11-20T04:46:41.364Z,1.22
2022-11-20T04:49:11.826Z,1.55
2022-11-20T04:51:39.479Z,1.80
2022-11-20T04:54:07.065Z,1.80
2022-11-20T04:56:34.944Z,1.22
2022-11-20T04:59:02.850Z,1.40
2022-11-20T05:01:31.393Z,1.20
2022-11-20T05:03:59.460Z,0.90
2022-11-20T05:06:27.528Z,1.05
2022-11-20T05:08:55.477Z,0.90
2022-11-20T05:11:23.402Z,0.85
2022-11-20T05:13:52.668Z,0.70
2022-11-20T05:16:25.499Z,0.50
2022-11-20T05:18:56.594Z,0.47
2022-11-20T05:21:24.531Z,0.40
2022-11-20T05:23:52.572Z,0.40
2022-11-20T05:26:23.013Z,0.82
2022-11-20T05:28:52.513Z,1.02
2022-11-20T05:31:28.204Z,1.17
2022-11-20T05:33:57.380Z,0.55
2022-11-20T05:36:25.255Z,0.50
2022-11-20T05:38:58.073Z,0.50
2022-11-20T05:41:23.324Z,1.10
2022-11-20T05:43:52.561Z,1.50
2022-11-20T05:46:27.857Z,0.78
2022-11-20T05:48:51.672Z,0.80
2022-11-20T05:51:20.392Z,0.70
2022-11-20T05:53:53.299Z,0.53
2022-11-20T05:56:22.643Z,0.30
2022-11-20T05:58:53.865Z,0.57
2022-11-20T06:01:25.924Z,1.02
2022-11-20T06:03:55.372Z,3.05
2022-11-20T06:06:23.879Z,12.43
2022-11-20T06:08:51.822Z,2.45
2022-11-20T06:11:19.848Z,2.20
2022-11-20T06:13:50.963Z,7.67
2022-11-20T06:16:22.481Z,2.55
2022-11-20T06:18:51.849Z,3.20
2022-11-20T06:21:21.429Z,3.10
2022-11-20T06:23:51.332Z,2.85
2022-11-20T06:26:26.332Z,7.35
2022-11-20T06:28:56.572Z,2.65
2022-11-20T06:31:27.988Z,2.15
2022-11-20T06:33:56.723Z,1.55
2022-11-20T06:36:28.928Z,1.70
2022-11-20T06:38:57.874Z,2.70
2022-11-20T06:41:26.182Z,2.87
2022-11-20T06:43:55.173Z,5.05
2022-11-20T06:46:23.886Z,2.33
2022-11-20T06:48:51.709Z,4.22
2022-11-20T06:51:21.794Z,3.02
2022-11-20T06:53:50.063Z,2.55
2022-11-20T06:56:18.091Z,2.47
2022-11-20T06:58:45.960Z,2.65
2022-11-20T07:01:15.779Z,3.92
2022-11-20T07:03:43.877Z,2.87
2022-11-20T07:06:12.016Z,3.35
2022-11-20T07:08:39.733Z,3.22
2022-11-20T07:11:12.944Z,4.45
2022-11-20T07:13:40.922Z,4.22
2022-11-20T07:16:11.754Z,3.15
2022-11-20T07:18:40.333Z,3.27
2022-11-20T07:21:10.763Z,3.60
2022-11-20T07:23:38.788Z,3.20
2022-11-20T07:26:09.593Z,3.20
2022-11-20T07:28:37.615Z,3.45
2022-11-20T07:31:12.382Z,4.25
2022-11-20T07:33:45.316Z,3.85
2022-11-20T07:36:15.668Z,3.67
2022-11-20T07:38:46.395Z,3.15
2022-11-20T07:41:16.123Z,3.42
2022-11-20T07:43:43.839Z,3.45
2022-11-20T07:46:11.437Z,3.45
2022-11-20T07:48:39.239Z,3.55
2022-11-20T07:51:07.049Z,3.92
2022-11-20T07:53:37.423Z,3.77
2022-11-20T07:56:05.974Z,3.83
2022-11-20T07:58:35.202Z,5.00
2022-11-20T08:01:07.673Z,4.70
2022-11-20T08:03:37.881Z,5.05
2022-11-20T08:06:06.841Z,6.00
2022-11-20T08:08:37.838Z,5.78
2022-11-20T08:11:23.206Z,6.95
2022-11-20T08:14:10.125Z,7.75
2022-11-20T08:16:38.227Z,8.70
2022-11-20T08:19:06.334Z,8.10
2022-11-20T08:21:38.236Z,7.20
2022-11-20T08:24:05.075Z,7.17
2022-11-20T08:26:32.923Z,5.25
2022-11-20T08:29:01.241Z,4.42
2022-11-20T08:31:29.121Z,3.35
2022-11-20T08:33:56.949Z,3.77
2022-11-20T08:36:26.022Z,2.80
2022-11-20T08:38:56.851Z,3.72
2022-11-20T08:41:24.856Z,3.72
2022-11-20T08:43:59.279Z,2.98
2022-11-20T08:46:31.283Z,3.33
2022-11-20T08:49:04.380Z,2.87
2022-11-20T08:51:32.756Z,2.52
2022-11-20T08:54:00.392Z,2.80
2022-11-20T08:56:29.644Z,2.92
2022-11-20T08:59:20.576Z,2.80
2022-11-20T09:01:29.775Z,3.55
2022-11-20T09:03:57.858Z,3.77
2022-11-20T09:06:25.577Z,3.35
2022-11-20T09:08:55.196Z,3.67
2022-11-20T09:11:23.382Z,3.80
2022-11-20T09:13:51.609Z,3.52
2022-11-20T09:16:19.575Z,3.08
2022-11-20T09:18:53.983Z,3.50
2022-11-20T09:21:17.395Z,2.52
2022-11-20T09:23:46.060Z,2.35
2022-11-20T09:26:14.966Z,2.15
2022-11-20T09:28:43.877Z,2.40
2022-11-20T09:31:26.676Z,4.87
2022-11-20T09:33:54.589Z,12.10
2022-11-20T09:36:22.619Z,3.30
2022-11-20T09:38:50.606Z,3.05
2022-11-20T09:41:43.572Z,2.75
2022-11-20T09:44:51.871Z,2.87
2022-11-20T09:47:40.546Z,2.67
2022-11-20T09:50:31.569Z,2.30
2022-11-20T09:53:13.854Z,2.77
2022-11-20T09:55:41.612Z,3.83
2022-11-20T09:58:30.272Z,4.12
2022-11-20T10:01:14.807Z,4.00
2022-11-20T10:04:06.800Z,4.30
2022-11-20T10:07:04.313Z,3.47
2022-11-20T10:09:38.327Z,5.00
2022-11-20T10:12:53.976Z,4.08
2022-11-20T10:15:34.521Z,3.08
2022-11-20T10:18:10.583Z,2.65
2022-11-20T10:21:03.885Z,3.92
2022-11-20T10:23:47.976Z,3.95
2022-11-20T10:26:25.899Z,3.98
2022-11-20T10:29:19.339Z,3.75
2022-11-20T10:32:07.161Z,2.70
2022-11-20T10:34:55.828Z,3.00
2022-11-20T10:37:28.875Z,2.52
2022-11-20T10:40:08.057Z,2.50
2022-11-20T10:42:46.248Z,4.97
2022-11-20T10:45:28.725Z,2.70
2022-11-20T10:48:17.606Z,5.30
2022-11-20T10:51:10.536Z,4.28
2022-11-20T10:54:34.465Z,4.10
2022-11-20T10:57:07.786Z,4.62
2022-11-20T11:00:00.277Z,4.60
2022-11-20T11:02:46.796Z,4.58
2022-11-20T11:05:44.270Z,3.95
2022-11-20T11:08:19.106Z,4.58
2022-11-20T11:11:02.722Z,4.00
2022-11-20T11:13:31.790Z,4.10
2022-11-20T11:16:01.211Z,4.05
2022-11-20T11:18:32.986Z,4.42
2022-11-20T11:21:04.493Z,4.20
2022-11-20T11:23:40.926Z,4.67
2022-11-20T11:26:22.554Z,4.60
2022-11-20T11:29:01.498Z,5.95
2022-11-20T11:31:36.844Z,6.78
2022-11-20T11:36:36.488Z,7.65
2022-11-20T11:39:09.199Z,8.55
2022-11-20T11:41:37.453Z,9.33
2022-11-20T11:44:44.912Z,17.55
2022-11-20T11:47:26.843Z,15.23
2022-11-20T11:50:15.961Z,14.75
2022-11-20T11:53:13.416Z,13.20
2022-11-20T11:55:57.825Z,12.55
2022-11-20T11:58:46.257Z,12.55
2022-11-20T12:01:42.395Z,13.20
2022-11-20T12:07:44.210Z,8.05
2022-11-20T12:09:50.370Z,10.93
2022-11-20T12:12:23.811Z,9.68
2022-11-20T12:14:55.690Z,9.98
2022-11-20T12:17:25.004Z,8.75
2022-11-20T12:19:52.708Z,10.10
2022-11-20T12:22:37.673Z,12.60
2022-11-20T12:25:37.086Z,11.22
2022-11-20T12:28:22.246Z,10.35
2022-11-20T12:31:29.326Z,9.83
2022-11-20T12:34:21.983Z,11.35
2022-11-20T12:36:59.746Z,11.93
2022-11-20T12:39:44.214Z,13.95
2022-11-20T12:42:51.410Z,13.08
2022-11-20T12:45:49.219Z,11.35
2022-11-20T12:48:55.258Z,11.22
2022-11-20T12:51:41.004Z,10.58
2022-11-20T12:54:58.493Z,35.85
2022-11-20T12:57:59.148Z,19.80
2022-11-20T13:00:27.159Z,12.23
2022-11-20T13:03:27.933Z,12.10
2022-11-20T13:06:18.280Z,13.28
2022-11-20T13:08:56.563Z,12.18
2022-11-20T13:11:51.668Z,13.10
2022-11-20T13:14:45.392Z,12.03
2022-11-20T13:17:34.038Z,12.65
2022-11-20T13:20:07.375Z,13.05
2022-11-20T13:22:48.616Z,14.53
2022-11-20T13:25:36.078Z,13.28
2022-11-20T13:28:19.356Z,14.43
2022-11-20T13:30:53.075Z,12.50
2022-11-20T13:33:37.718Z,10.85
2022-11-20T13:36:25.059Z,10.53
2022-11-20T13:38:56.077Z,9.13
2022-11-20T13:41:38.264Z,9.28
2022-11-20T13:44:38.593Z,10.45
2022-11-20T13:47:23.475Z,10.03
2022-11-20T13:49:58.493Z,15.53
2022-11-20T13:52:51.443Z,21.82
2022-11-20T13:55:43.169Z,27.40
2022-11-20T13:58:33.072Z,30.30
2022-11-20T14:01:24.937Z,29.20
2022-11-20T14:04:09.888Z,21.50
2022-11-20T14:06:29.499Z,14.10
2022-11-20T14:09:00.403Z,20.92
2022-11-20T14:11:32.125Z,23.30
2022-11-20T14:14:19.605Z,25.05
2022-11-20T14:16:48.881Z,22.45
2022-11-20T14:19:28.185Z,23.10
2022-11-20T14:22:20.380Z,20.40
2022-11-20T14:24:50.079Z,20.08
2022-11-20T14:27:21.039Z,19.95
2022-11-20T14:29:51.211Z,22.15
2022-11-20T14:32:22.784Z,21.55
2022-11-20T14:34:51.629Z,16.57
2022-11-20T14:37:24.523Z,18.92
2022-11-20T14:40:00.158Z,19.32
2022-11-20T14:42:31.334Z,17.95
2022-11-20T14:45:00.933Z,20.52
2022-11-20T14:47:32.260Z,11.70
2022-11-20T14:50:07.361Z,9.55
2022-11-20T14:52:33.791Z,10.40
2022-11-20T14:55:04.982Z,12.25
2022-11-20T14:57:37.572Z,10.60
2022-11-20T15:00:12.833Z,9.28
2022-11-20T15:02:46.513Z,11.00
2022-11-20T15:05:16.289Z,8.98
2022-11-20T15:07:50.257Z,10.72
2022-11-20T15:10:30.359Z,12.20
2022-11-20T15:13:14.845Z,14.55
2022-11-20T15:15:52.616Z,13.78
2022-11-20T15:18:31.281Z,14.38
2022-11-20T15:21:06.991Z,14.93
2022-11-20T15:23:37.173Z,14.53
2022-11-20T15:26:18.369Z,17.70
2022-11-20T15:28:46.379Z,20.97
2022-11-20T15:31:18.981Z,18.40
2022-11-20T15:33:51.320Z,18.70
2022-11-20T15:36:19.392Z,19.17
2022-11-20T15:38:47.828Z,15.88
2022-11-20T15:41:16.511Z,19.48
2022-11-20T15:43:44.652Z,14.95
2022-11-20T15:46:16.463Z,15.15
2022-11-20T15:48:48.579Z,16.45
2022-11-20T15:51:27.752Z,16.75
2022-11-20T15:53:57.199Z,17.57
2022-11-20T15:56:27.445Z,23.85
2022-11-20T15:58:55.184Z,25.57
2022-11-20T16:01:23.598Z,23.75
2022-11-20T16:03:51.289Z,22.02
2022-11-20T16:06:18.943Z,24.00
2022-11-20T16:08:48.646Z,15.30
2022-11-20T16:11:18.678Z,14.65
2022-11-20T16:14:04.937Z,14.85
2022-11-20T16:19:13.584Z,14.70
2022-11-20T16:21:42.146Z,16.02
2022-11-20T16:24:13.328Z,15.08
2022-11-20T16:26:41.888Z,13.32
2022-11-20T16:29:11.744Z,13.75
2022-11-20T16:31:39.296Z,15.35
2022-11-20T16:34:12.368Z,14.13
2022-11-20T16:36:42.017Z,15.60
2022-11-20T16:39:10.362Z,14.95
2022-11-20T16:41:40.215Z,12.70
2022-11-20T16:44:12.349Z,10.50
2022-11-20T16:46:40.713Z,10.32
2022-11-20T16:49:14.540Z,8.93
2022-11-20T16:51:45.195Z,11.35
2022-11-20T16:54:17.906Z,11.43
2022-11-20T16:56:43.019Z,10.13
2022-11-20T16:59:13.016Z,8.78
2022-11-20T17:01:42.563Z,9.45
2022-11-20T17:04:15.665Z,10.05
2022-11-20T17:06:49.665Z,13.35
2022-11-20T17:09:19.784Z,15.05
2022-11-20T17:11:49.452Z,13.43
2022-11-20T17:14:18.028Z,12.68
2022-11-20T17:16:46.032Z,13.20
2022-11-20T17:19:15.318Z,10.68
2022-11-20T17:21:45.689Z,11.88
2022-11-20T17:24:15.727Z,14.60
2022-11-20T17:26:45.270Z,13.43
2022-11-20T17:29:20.779Z,15.32
2022-11-20T17:31:48.690Z,15.30
2022-11-20T17:34:19.349Z,14.47
2022-11-20T17:36:46.847Z,13.53
2022-11-20T17:39:16.214Z,13.78
2022-11-20T17:41:44.336Z,13.78
2022-11-20T17:44:13.208Z,14.30
2022-11-20T17:46:41.059Z,13.68
2022-11-20T17:49:08.702Z,14.30
2022-11-20T17:51:36.452Z,21.12
2022-11-20T17:54:06.943Z,15.53
2022-11-20T17:56:54.092Z,13.32
2022-11-20T17:59:22.158Z,13.30
2022-11-20T18:01:50.003Z,11.60
2022-11-20T18:04:21.443Z,15.70
2022-11-20T18:06:49.441Z,14.80
2022-11-20T18:09:18.749Z,13.68
2022-11-20T18:11:46.072Z,11.22
2022-11-20T18:14:35.629Z,11.60
2022-11-20T18:17:12.472Z,10.30
2022-11-20T18:20:00.674Z,8.73
2022-11-20T18:22:18.095Z,10.58
2022-11-20T18:24:46.229Z,13.88
2022-11-20T18:27:19.255Z,13.38
2022-11-20T18:29:50.156Z,11.48
2022-11-20T18:32:21.338Z,11.78
2022-11-20T18:34:51.094Z,14.30
2022-11-20T18:37:19.640Z,12.03
2022-11-20T18:39:49.424Z,14.25
2022-11-20T18:42:37.987Z,13.40
2022-11-20T18:45:09.613Z,16.37
2022-11-20T18:47:39.603Z,15.85
2022-11-20T18:50:10.320Z,17.70
2022-11-20T18:52:41.651Z,14.68
2022-11-20T18:55:11.645Z,11.43
2022-11-20T18:57:39.706Z,13.22
2022-11-20T19:00:09.828Z,12.75
2022-11-20T19:02:43.045Z,13.72
2022-11-20T19:05:10.347Z,14.53
2022-11-20T19:07:52.432Z,11.55
2022-11-20T19:10:28.921Z,12.03
2022-11-20T19:12:58.131Z,14.43
2022-11-20T19:15:31.734Z,15.18
2022-11-20T19:19:11.472Z,15.55
2022-11-20T19:30:46.721Z,14.98
2022-11-20T19:32:27.548Z,12.25
2022-11-20T19:34:58.234Z,14.75
2022-11-20T19:37:26.873Z,17.40
2022-11-20T19:39:59.556Z,12.37
2022-11-20T19:42:33.665Z,12.10
2022-11-20T19:45:11.726Z,11.28
2022-11-20T19:50:24.003Z,11.00
2022-11-20T19:55:29.340Z,8.00
2022-11-20T19:58:06.510Z,8.53
2022-11-20T20:00:57.158Z,9.18
2022-11-20T20:03:31.640Z,10.08
2022-11-20T20:06:16.919Z,10.75
2022-11-20T20:08:56.786Z,10.60
2022-11-20T20:14:06.548Z,10.30
2022-11-20T20:16:39.497Z,11.22
2022-11-20T20:21:36.074Z,12.03
2022-11-20T20:26:33.619Z,15.03
2022-11-20T20:29:05.388Z,11.85
2022-11-20T20:31:35.743Z,12.70
2022-11-20T20:34:04.945Z,11.10
2022-11-20T20:36:35.035Z,12.33
2022-11-20T20:41:31.209Z,12.90
2022-11-20T20:44:17.738Z,13.88
2022-11-20T20:49:14.762Z,12.35
2022-11-20T20:51:43.553Z,15.50
2022-11-20T20:54:13.689Z,16.73
2022-11-20T20:59:09.144Z,16.45
2022-11-20T21:04:06.255Z,14.00
2022-11-20T21:06:36.585Z,13.10
2022-11-20T21:09:07.640Z,15.13
2022-11-20T21:14:03.160Z,13.32
2022-11-20T21:19:02.409Z,13.58
2022-11-20T21:23:59.254Z,16.85
2022-11-20T21:26:27.404Z,14.45
2022-11-20T21:28:58.914Z,13.45
2022-11-20T21:33:58.553Z,13.55
2022-11-20T21:38:56.046Z,12.60
2022-11-20T21:41:28.353Z,13.90
2022-11-20T21:46:32.037Z,14.10
2022-11-20T21:49:02.621Z,13.95
2022-11-20T21:51:33.034Z,14.18
2022-11-20T21:54:01.697Z,13.90
2022-11-20T21:56:36.072Z,13.88
2022-11-20T21:59:05.524Z,13.70
2022-11-20T22:01:33.868Z,13.03
2022-11-20T22:06:37.458Z,11.95
2022-11-20T22:11:33.397Z,13.60
2022-11-20T22:14:19.945Z,12.07
2022-11-20T22:19:18.632Z,12.70
2022-11-20T22:24:17.163Z,12.53
2022-11-20T22:29:23.327Z,13.28
2022-11-20T22:31:53.394Z,12.63
2022-11-20T22:34:23.642Z,12.60
2022-11-20T22:36:52.865Z,12.28
2022-11-20T22:41:49.011Z,11.28
2022-11-20T22:44:17.041Z,11.65
2022-11-20T22:46:48.502Z,12.18
2022-11-20T22:49:19.463Z,13.45
2022-11-20T22:51:47.375Z,12.58
2022-11-20T22:54:16.861Z,12.35
2022-11-20T22:56:45.210Z,12.75
2022-11-20T22:59:13.792Z,12.53
2022-11-20T23:01:42.822Z,14.50
2022-11-20T23:04:12.083Z,14.13
2022-11-20T23:06:39.098Z,14.25
2022-11-20T23:09:11.474Z,12.95
2022-11-20T23:11:39.561Z,13.45
2022-11-20T23:16:36.261Z,12.90
2022-11-20T23:19:08.008Z,13.60
2022-11-20T23:24:14.660Z,10.53
2022-11-20T23:29:12.058Z,11.48
2022-11-20T23:34:10.686Z,11.15
2022-11-20T23:36:48.990Z,10.48
2022-11-20T23:42:45.021Z,10.68
2022-11-20T23:48:07.049Z,9.68
2022-11-20T23:50:38.192Z,9.93
2022-11-20T23:53:06.933Z,10.18
2022-11-20T23:55:37.590Z,9.83
2022-11-20T23:58:05.559Z,8.93
